Time;durP1;ratioP1;P1;durP2;ratioP2;P2;SDS_P1;SDS_P2;PMS_P1;PMS_P2;Temp;Humidity;BMP_temperature;BMP_pressure;BME280_temperature;BME280_humidity;BME280_pressure;Samples;Min_cycle;Max_cycle;Signal;HPM_P1;HPM_P2
2023/05/28 00:00:08;;;;;;;14.52;5.63;;;13.00;99.90;;;;;;5048648;28;20037;-55
2023/05/28 00:02:34;;;;;;;10.63;5.50;;;12.90;99.90;;;;;;5051419;28;20041;-55
2023/05/28 00:05:00;;;;;;;13.82;6.10;;;13.00;99.90;;;;;;5055290;28;20051;-55
2023/05/28 00:07:28;;;;;;;10.63;5.35;;;13.00;99.90;;;;;;5052280;28;20039;-55
2023/05/28 00:09:55;;;;;;;10.40;5.75;;;13.00;99.90;;;;;;5055542;28;20056;-56
2023/05/28 00:12:21;;;;;;;13.90;6.18;;;13.00;99.90;;;;;;5058395;28;20040;-55
2023/05/28 00:14:47;;;;;;;12.05;5.82;;;12.90;99.90;;;;;;5055343;28;20032;-55
2023/05/28 00:17:13;;;;;;;12.43;6.38;;;12.70;99.90;;;;;;5054201;28;20662;-55
2023/05/28 00:19:39;;;;;;;13.73;5.50;;;12.70;99.90;;;;;;5057153;28;20071;-55
2023/05/28 00:22:05;;;;;;;10.90;6.22;;;12.70;99.90;;;;;;5054809;28;20036;-55
2023/05/28 00:24:31;;;;;;;11.55;5.95;;;12.70;99.90;;;;;;5057268;28;20029;-56
2023/05/28 00:26:56;;;;;;;12.15;6.70;;;12.70;99.90;;;;;;5054381;28;20022;-55
2023/05/28 00:29:24;;;;;;;13.00;5.97;;;12.60;99.90;;;;;;5056616;28;20082;-55
2023/05/28 00:31:51;;;;;;;11.20;6.07;;;12.50;99.90;;;;;;5057007;28;20051;-55
2023/05/28 00:34:17;;;;;;;10.88;6.20;;;12.50;99.90;;;;;;5051793;28;20140;-55
2023/05/28 00:36:43;;;;;;;11.32;5.97;;;12.40;99.90;;;;;;5056266;28;20470;-55
2023/05/28 00:39:08;;;;;;;11.77;6.22;;;12.40;99.90;;;;;;5053574;28;20029;-55
2023/05/28 00:41:36;;;;;;;9.68;5.80;;;12.40;99.90;;;;;;5058349;28;20115;-55
2023/05/28 00:44:02;;;;;;;8.90;6.13;;;12.30;99.90;;;;;;5053323;28;20048;-56
2023/05/28 00:46:28;;;;;;;11.40;6.00;;;12.30;99.90;;;;;;5058162;28;20029;-56
2023/05/28 00:48:54;;;;;;;11.43;6.20;;;12.20;99.90;;;;;;5058292;28;20033;-55
2023/05/28 00:51:20;;;;;;;9.13;5.68;;;12.20;99.90;;;;;;5053336;28;20372;-55
2023/05/28 00:53:46;;;;;;;9.13;5.55;;;12.20;99.90;;;;;;5054581;28;20078;-56
2023/05/28 00:56:13;;;;;;;11.38;6.13;;;12.30;99.90;;;;;;5050493;28;20032;-55
2023/05/28 00:58:39;;;;;;;14.80;6.70;;;12.20;99.90;;;;;;5059983;28;20244;-56
2023/05/28 01:01:06;;;;;;;13.77;6.47;;;12.20;99.90;;;;;;5058872;28;20120;-54
2023/05/28 01:03:32;;;;;;;10.57;6.00;;;12.30;99.90;;;;;;5054901;28;20025;-54
2023/05/28 01:06:01;;;;;;;11.13;6.03;;;12.20;99.90;;;;;;5060861;28;20155;-55
2023/05/28 01:08:27;;;;;;;10.75;6.35;;;12.00;99.90;;;;;;5053125;28;20029;-55
2023/05/28 01:10:53;;;;;;;12.52;6.53;;;12.00;99.90;;;;;;5061959;28;20082;-54
2023/05/28 01:13:19;;;;;;;11.50;6.30;;;12.00;99.90;;;;;;5056970;28;20024;-55
2023/05/28 01:15:45;;;;;;;12.77;6.18;;;12.00;99.90;;;;;;5051493;28;20039;-55
2023/05/28 01:18:11;;;;;;;12.88;6.07;;;12.00;99.90;;;;;;5054725;28;20052;-55
2023/05/28 01:20:37;;;;;;;10.23;6.03;;;11.90;99.90;;;;;;5059203;28;20484;-55
2023/05/28 01:23:10;;;;;;;12.82;7.57;;;11.90;99.90;;;;;;5051583;28;20047;-55
2023/05/28 01:25:38;;;;;;;17.02;9.18;;;11.90;99.90;;;;;;5052376;28;20525;-55
2023/05/28 01:28:14;;;;;;;16.85;9.52;;;11.90;99.90;;;;;;5051649;28;20040;-56
2023/05/28 01:30:40;;;;;;;16.60;8.40;;;11.90;99.90;;;;;;5055967;28;20047;-55
2023/05/28 01:33:06;;;;;;;16.02;7.90;;;11.90;99.90;;;;;;5050728;28;20037;-56
2023/05/28 01:35:32;;;;;;;12.65;7.60;;;11.90;99.90;;;;;;5058118;28;20029;-55
2023/05/28 01:38:01;;;;;;;12.43;6.50;;;11.90;99.90;;;;;;5057183;28;20036;-56
2023/05/28 01:40:27;;;;;;;16.92;6.72;;;11.80;99.90;;;;;;5055238;28;20175;-56
2023/05/28 01:42:56;;;;;;;11.88;6.85;;;11.60;99.90;;;;;;5053993;28;20399;-56
2023/05/28 01:45:23;;;;;;;17.05;7.57;;;11.50;99.90;;;;;;5055996;28;20047;-56
2023/05/28 01:47:49;;;;;;;13.27;6.85;;;11.50;99.90;;;;;;5053874;28;20068;-56
2023/05/28 01:50:15;;;;;;;14.75;6.95;;;11.50;99.90;;;;;;5049815;28;20102;-56
2023/05/28 01:52:41;;;;;;;13.05;8.07;;;11.60;99.90;;;;;;5054963;28;20099;-56
2023/05/28 01:55:08;;;;;;;21.10;11.15;;;11.60;99.90;;;;;;5049073;28;20091;-56
2023/05/28 01:57:35;;;;;;;21.55;13.27;;;11.50;99.90;;;;;;5061306;28;20039;-56
2023/05/28 02:00:00;;;;;;;19.13;11.00;;;11.40;99.90;;;;;;5052201;28;20036;-56
2023/05/28 02:02:26;;;;;;;14.07;8.80;;;11.30;99.90;;;;;;5047301;28;20047;-56
2023/05/28 02:04:53;;;;;;;21.90;10.35;;;11.40;99.90;;;;;;5052340;28;20588;-56
2023/05/28 02:07:18;;;;;;;19.70;11.30;;;11.40;99.90;;;;;;5046782;28;20499;-56
2023/05/28 02:09:45;;;;;;;19.58;11.25;;;11.40;99.90;;;;;;5051224;28;20032;-55
2023/05/28 02:12:10;;;;;;;19.35;11.18;;;11.30;99.90;;;;;;5059144;28;20079;-56
2023/05/28 02:14:36;;;;;;;18.45;10.82;;;11.40;99.90;;;;;;5049862;28;20036;-55
2023/05/28 02:17:02;;;;;;;15.52;10.32;;;11.40;99.90;;;;;;5048113;28;20043;-56
2023/05/28 02:19:28;;;;;;;14.93;9.82;;;11.50;99.90;;;;;;5047987;28;20052;-56
2023/05/28 02:21:54;;;;;;;15.00;8.27;;;11.50;99.90;;;;;;5049055;28;20029;-56
2023/05/28 02:24:20;;;;;;;16.55;8.20;;;11.60;99.90;;;;;;5051809;28;20047;-56
2023/05/28 02:26:46;;;;;;;14.60;7.80;;;11.60;99.90;;;;;;5057374;28;20044;-56
2023/05/28 02:29:11;;;;;;;14.80;7.45;;;11.60;99.90;;;;;;5047410;28;20029;-56
2023/05/28 02:31:37;;;;;;;16.48;7.60;;;11.70;99.90;;;;;;5051055;28;20041;-56
2023/05/28 02:34:02;;;;;;;12.88;7.47;;;11.60;99.90;;;;;;5047147;28;20149;-56
2023/05/28 02:36:29;;;;;;;14.75;6.85;;;11.50;99.90;;;;;;5052721;28;20033;-56
2023/05/28 02:38:55;;;;;;;16.00;8.32;;;11.30;99.90;;;;;;5046005;28;20079;-56
2023/05/28 02:41:21;;;;;;;14.02;8.50;;;11.10;99.90;;;;;;5052059;28;20484;-55
2023/05/28 02:43:46;;;;;;;18.55;10.80;;;11.00;99.90;;;;;;5053565;28;20117;-56
2023/05/28 02:46:12;;;;;;;16.38;10.23;;;11.10;99.90;;;;;;5056201;28;20040;-56
2023/05/28 02:48:38;;;;;;;21.52;10.15;;;11.20;99.90;;;;;;5052235;28;20040;-55
2023/05/28 02:51:03;;;;;;;20.80;10.48;;;11.20;99.90;;;;;;5046162;28;20040;-56
2023/05/28 02:53:31;;;;;;;19.25;10.80;;;11.20;99.90;;;;;;5046511;28;20033;-56
2023/05/28 02:55:56;;;;;;;17.45;9.63;;;11.20;99.90;;;;;;5046644;28;20408;-55
2023/05/28 02:58:23;;;;;;;22.05;10.38;;;11.20;99.90;;;;;;5049587;28;20060;-55
2023/05/28 03:00:49;;;;;;;27.75;11.88;;;11.20;99.90;;;;;;5050124;28;20460;-56
2023/05/28 03:03:15;;;;;;;20.77;10.88;;;11.30;99.90;;;;;;5048058;28;20094;-56
2023/05/28 03:05:41;;;;;;;20.98;10.23;;;11.30;99.90;;;;;;5056116;28;20066;-55
2023/05/28 03:08:06;;;;;;;20.08;10.05;;;11.40;99.90;;;;;;5049312;28;20051;-55
2023/05/28 03:10:32;;;;;;;15.35;9.10;;;11.30;99.90;;;;;;5054961;28;20032;-56
2023/05/28 03:12:58;;;;;;;19.05;9.30;;;11.30;99.90;;;;;;5054428;28;20044;-56
2023/05/28 03:15:26;;;;;;;15.15;8.30;;;11.20;99.90;;;;;;5051876;28;20037;-56
2023/05/28 03:17:52;;;;;;;17.63;7.85;;;11.20;99.90;;;;;;5053754;28;20032;-56
2023/05/28 03:20:18;;;;;;;17.40;8.38;;;11.40;99.90;;;;;;5051009;28;20141;-55
2023/05/28 03:22:45;;;;;;;15.02;7.57;;;11.60;99.90;;;;;;5053853;28;20028;-56
2023/05/28 03:25:11;;;;;;;13.80;8.02;;;11.60;99.90;;;;;;5052085;28;20056;-55
2023/05/28 03:27:36;;;;;;;17.10;7.63;;;11.60;99.90;;;;;;5060397;28;20075;-55
2023/05/28 03:30:03;;;;;;;14.57;8.00;;;11.40;99.90;;;;;;5055610;28;20028;-56
2023/05/28 03:32:29;;;;;;;15.82;8.27;;;11.50;99.90;;;;;;5053573;28;20037;-56
2023/05/28 03:34:55;;;;;;;14.30;7.00;;;11.60;99.90;;;;;;5056725;28;20051;-56
2023/05/28 03:37:20;;;;;;;14.23;6.88;;;11.60;99.90;;;;;;5052592;28;20036;-56
2023/05/28 03:39:46;;;;;;;15.15;7.43;;;11.50;99.90;;;;;;5054391;28;20056;-55
2023/05/28 03:42:12;;;;;;;13.85;7.25;;;11.60;99.90;;;;;;5054876;28;20039;-55
2023/05/28 03:44:37;;;;;;;14.40;7.60;;;11.60;99.90;;;;;;5060221;28;20033;-55
2023/05/28 03:47:03;;;;;;;19.10;7.47;;;11.60;99.90;;;;;;5057977;28;20044;-56
2023/05/28 03:49:28;;;;;;;14.45;7.18;;;11.60;99.90;;;;;;5060673;28;20020;-55
2023/05/28 03:51:54;;;;;;;15.30;7.78;;;11.60;99.90;;;;;;5054870;28;20044;-56
2023/05/28 03:54:19;;;;;;;14.30;6.97;;;11.60;99.90;;;;;;5055798;28;20032;-55
2023/05/28 03:56:45;;;;;;;10.98;7.10;;;11.60;99.90;;;;;;5056587;28;20029;-55
2023/05/28 03:59:11;;;;;;;13.52;7.03;;;11.50;99.90;;;;;;5056556;28;20055;-55
2023/05/28 04:01:36;;;;;;;12.55;7.20;;;11.40;99.90;;;;;;5058091;28;20055;-55
2023/05/28 04:04:02;;;;;;;15.50;7.80;;;11.20;99.90;;;;;;5056935;28;20120;-56
2023/05/28 04:06:28;;;;;;;11.43;6.28;;;11.10;99.90;;;;;;5057607;28;20334;-53
2023/05/28 04:08:55;;;;;;;14.93;7.13;;;11.10;99.90;;;;;;5057702;28;20032;-55
2023/05/28 04:11:24;;;;;;;14.05;7.38;;;11.10;99.90;;;;;;5058923;28;20029;-55
2023/05/28 04:13:52;;;;;;;14.30;7.45;;;11.00;99.90;;;;;;5061292;28;20033;-55
2023/05/28 04:16:22;;;;;;;13.18;6.97;;;11.10;99.90;;;;;;5057399;28;20073;-55
2023/05/28 04:18:51;;;;;;;15.38;7.45;;;11.20;99.90;;;;;;5056314;28;20041;-56
2023/05/28 04:21:17;;;;;;;14.02;7.55;;;11.30;99.90;;;;;;5058501;28;20052;-55
2023/05/28 04:23:42;;;;;;;14.68;7.70;;;11.60;99.90;;;;;;5059281;28;20029;-59
2023/05/28 04:26:09;;;;;;;15.38;7.82;;;11.70;99.90;;;;;;5055469;28;20021;-56
2023/05/28 04:28:35;;;;;;;16.77;8.18;;;11.80;99.90;;;;;;5055910;28;20053;-55
2023/05/28 04:31:00;;;;;;;14.75;7.78;;;11.60;99.90;;;;;;5057361;28;20114;-55
2023/05/28 04:33:28;;;;;;;20.30;8.88;;;11.60;99.90;;;;;;5053864;28;20037;-55
2023/05/28 04:35:55;;;;;;;14.65;7.78;;;11.60;99.90;;;;;;5059633;28;20523;-55
2023/05/28 04:38:21;;;;;;;15.90;8.32;;;11.50;99.90;;;;;;5057320;28;20090;-54
2023/05/28 04:40:46;;;;;;;13.18;8.13;;;11.70;99.90;;;;;;5055945;28;20497;-55
2023/05/28 04:43:12;;;;;;;14.90;7.95;;;11.80;99.90;;;;;;5059309;28;20721;-55
2023/05/28 04:45:37;;;;;;;16.52;7.85;;;11.90;99.90;;;;;;5062246;28;20543;-55
2023/05/28 04:48:04;;;;;;;15.88;7.93;;;12.00;99.90;;;;;;5059082;28;20033;-55
2023/05/28 04:50:30;;;;;;;13.65;8.43;;;12.10;99.90;;;;;;5055177;28;20191;-55
2023/05/28 04:52:55;;;;;;;17.13;8.30;;;12.30;99.90;;;;;;5060756;28;20536;-55
2023/05/28 04:55:22;;;;;;;14.65;8.02;;;12.30;99.90;;;;;;5057367;28;20996;-56
2023/05/28 04:57:48;;;;;;;17.13;7.72;;;12.30;99.90;;;;;;5057160;28;20043;-55
2023/05/28 05:00:13;;;;;;;15.07;8.80;;;12.40;99.90;;;;;;5056791;28;20033;-55
2023/05/28 05:02:41;;;;;;;16.48;8.02;;;12.60;99.90;;;;;;5057472;28;20036;-55
2023/05/28 05:05:07;;;;;;;17.08;8.55;;;12.60;99.90;;;;;;5057537;28;20044;-55
2023/05/28 05:07:35;;;;;;;16.38;8.57;;;12.60;99.90;;;;;;5053185;28;20036;-55
2023/05/28 05:10:00;;;;;;;19.02;9.27;;;12.80;99.90;;;;;;5055624;28;20187;-55
2023/05/28 05:12:26;;;;;;;16.95;8.45;;;;;;;;;;5057128;28;20407;-55
2023/05/28 05:14:52;;;;;;;15.05;8.32;;;13.00;99.90;;;;;;5056095;28;20041;-55
2023/05/28 05:17:17;;;;;;;19.65;8.77;;;13.10;99.90;;;;;;5052388;28;20175;-55
2023/05/28 05:19:43;;;;;;;17.27;8.40;;;13.10;99.90;;;;;;5054967;28;20519;-55
2023/05/28 05:22:09;;;;;;;18.95;9.25;;;13.40;99.90;;;;;;5055569;28;20384;-55
2023/05/28 05:24:34;;;;;;;15.85;8.30;;;13.50;99.90;;;;;;5050812;28;20589;-55
2023/05/28 05:27:01;;;;;;;19.10;8.70;;;13.50;99.90;;;;;;5054296;28;20029;-55
2023/05/28 05:29:27;;;;;;;16.83;8.43;;;13.50;99.90;;;;;;5050269;28;20032;-55
2023/05/28 05:31:52;;;;;;;17.67;9.55;;;13.50;99.90;;;;;;5060384;28;20094;-55
2023/05/28 05:34:18;;;;;;;16.77;8.63;;;13.70;99.90;;;;;;5051091;28;20075;-56
2023/05/28 05:36:44;;;;;;;16.52;9.05;;;13.70;99.90;;;;;;5047872;28;20097;-55
2023/05/28 05:39:09;;;;;;;13.63;8.43;;;13.80;99.90;;;;;;5054846;28;20047;-55
2023/05/28 05:41:35;;;;;;;21.67;9.40;;;13.90;99.90;;;;;;5050355;28;20155;-55
2023/05/28 05:44:00;;;;;;;20.17;9.27;;;13.90;99.90;;;;;;5045530;28;20017;-56
2023/05/28 05:46:26;;;;;;;15.75;8.32;;;13.70;99.90;;;;;;5044231;28;20082;-55
2023/05/28 05:48:51;;;;;;;19.08;8.77;;;13.70;99.90;;;;;;5053027;28;20028;-55
2023/05/28 05:51:20;;;;;;;15.70;8.70;;;13.90;99.90;;;;;;5052492;28;20036;-56
2023/05/28 05:53:46;;;;;;;19.30;10.07;;;14.10;99.90;;;;;;5049212;28;20500;-56
2023/05/28 05:56:11;;;;;;;21.90;9.80;;;14.30;99.90;;;;;;5048785;28;20025;-57
2023/05/28 05:58:37;;;;;;;19.77;9.13;;;14.40;99.90;;;;;;5048370;28;20033;-56
2023/05/28 06:01:03;;;;;;;18.92;9.80;;;14.40;99.90;;;;;;5054402;28;20044;-55
2023/05/28 06:03:30;;;;;;;22.10;9.40;;;14.30;99.90;;;;;;5052555;28;20040;-56
2023/05/28 06:05:56;;;;;;;22.95;10.48;;;14.30;99.90;;;;;;5050013;28;20562;-55
2023/05/28 06:08:22;;;;;;;20.92;10.05;;;14.30;99.90;;;;;;5048162;28;20459;-55
2023/05/28 06:10:51;;;;;;;20.33;10.63;;;14.50;99.90;;;;;;5049974;28;20235;-55
2023/05/28 06:13:17;;;;;;;14.88;9.18;;;14.50;99.90;;;;;;5048653;28;20033;-55
2023/05/28 06:15:43;;;;;;;21.50;10.40;;;14.70;99.90;;;;;;5046430;28;20489;-55
2023/05/28 06:18:08;;;;;;;22.27;10.43;;;14.80;99.90;;;;;;5048252;28;20065;-55
2023/05/28 06:20:35;;;;;;;21.60;10.88;;;;;;;;;;5047702;28;20531;-56
2023/05/28 06:23:01;;;;;;;19.98;9.82;;;15.10;99.90;;;;;;5051498;28;20029;-55
2023/05/28 06:25:27;;;;;;;22.27;10.38;;;15.30;99.90;;;;;;5048284;28;20122;-55
2023/05/28 06:27:53;;;;;;;17.08;9.32;;;15.40;99.90;;;;;;5055411;28;20036;-56
2023/05/28 06:30:19;;;;;;;21.35;10.57;;;15.30;99.90;;;;;;5058305;28;20041;-55
2023/05/28 06:32:45;;;;;;;18.38;9.95;;;15.20;99.90;;;;;;5053992;28;21137;-56
2023/05/28 06:35:10;;;;;;;19.60;10.02;;;15.50;99.90;;;;;;5048505;28;20070;-55
2023/05/28 06:37:36;;;;;;;19.92;10.57;;;14.20;99.90;;;;;;5055099;28;20067;-56
2023/05/28 06:40:05;;;;;;;20.92;10.38;;;15.60;99.90;;;;;;5054961;28;20090;-55
2023/05/28 06:42:31;;;;;;;19.67;10.20;;;15.60;99.90;;;;;;5054624;28;20036;-55
2023/05/28 06:44:59;;;;;;;20.05;10.10;;;15.60;99.90;;;;;;5055306;28;20059;-55
2023/05/28 06:47:24;;;;;;;16.70;9.80;;;15.80;99.90;;;;;;5047026;28;20036;-56
2023/05/28 06:49:50;;;;;;;21.17;10.07;;;15.90;99.90;;;;;;5051371;28;20036;-55
2023/05/28 06:52:16;;;;;;;22.05;9.70;;;16.00;99.90;;;;;;5054138;28;20120;-55
2023/05/28 06:54:41;;;;;;;18.10;9.15;;;15.90;99.90;;;;;;5059023;28;20025;-55
2023/05/28 06:57:07;;;;;;;21.35;9.85;;;16.00;99.90;;;;;;5058440;28;20029;-54
2023/05/28 06:59:32;;;;;;;18.90;9.50;;;16.60;99.90;;;;;;5054837;28;20485;-55
2023/05/28 07:01:58;;;;;;;17.85;9.48;;;16.30;99.90;;;;;;5055138;28;20543;-55
2023/05/28 07:04:23;;;;;;;17.45;9.57;;;16.30;99.90;;;;;;5053571;28;20486;-56
2023/05/28 07:06:49;;;;;;;20.42;9.02;;;16.50;99.90;;;;;;5057592;28;20029;-55
2023/05/28 07:09:15;;;;;;;21.35;9.52;;;16.40;99.90;;;;;;5056460;28;20084;-55
2023/05/28 07:11:40;;;;;;;20.92;10.20;;;16.40;99.90;;;;;;5058172;28;20037;-57
2023/05/28 07:14:06;;;;;;;18.58;9.57;;;16.50;99.90;;;;;;5056850;28;20036;-56
2023/05/28 07:16:32;;;;;;;18.98;10.20;;;16.60;99.90;;;;;;5056610;28;20179;-55
2023/05/28 07:18:57;;;;;;;19.15;10.25;;;16.80;99.90;;;;;;5054005;28;20029;-56
2023/05/28 07:21:23;;;;;;;22.38;10.52;;;16.90;99.90;;;;;;5060042;28;20396;-55
2023/05/28 07:23:48;;;;;;;23.42;10.45;;;17.00;99.90;;;;;;5053844;28;20112;-55
2023/05/28 07:26:14;;;;;;;16.13;9.18;;;17.00;99.90;;;;;;5054376;28;20029;-55
2023/05/28 07:28:39;;;;;;;18.73;9.65;;;17.20;99.90;;;;;;5057483;28;20028;-55
2023/05/28 07:31:06;;;;;;;17.98;9.02;;;17.30;99.90;;;;;;5057601;28;20055;-55
2023/05/28 07:33:31;;;;;;;15.20;9.32;;;17.70;99.90;;;;;;5055503;28;20120;-55
2023/05/28 07:35:57;;;;;;;20.20;9.95;;;17.70;99.90;;;;;;5058420;28;20108;-56
2023/05/28 07:38:22;;;;;;;20.60;9.25;;;18.00;99.90;;;;;;5055692;28;20025;-55
2023/05/28 07:40:50;;;;;;;22.48;10.57;;;17.70;99.90;;;;;;5061030;28;20416;-55
2023/05/28 07:43:15;;;;;;;22.98;10.13;;;17.70;99.90;;;;;;5059846;28;20128;-55
2023/05/28 07:45:41;;;;;;;22.45;10.20;;;17.80;99.90;;;;;;5060047;28;20120;-55
2023/05/28 07:48:06;;;;;;;27.02;10.85;;;16.20;99.90;;;;;;5054101;28;20064;-56
2023/05/28 07:50:32;;;;;;;22.90;9.73;;;17.90;99.90;;;;;;5058054;28;20033;-55
2023/05/28 07:52:57;;;;;;;18.85;9.48;;;18.40;99.90;;;;;;5059596;28;20131;-54
2023/05/28 07:55:23;;;;;;;25.60;10.05;;;18.40;99.90;;;;;;5053740;28;20111;-55
2023/05/28 07:57:49;;;;;;;19.17;9.90;;;18.60;99.90;;;;;;5055311;28;20041;-54
2023/05/28 08:00:15;;;;;;;20.52;9.85;;;18.70;99.90;;;;;;5060325;28;20037;-55
2023/05/28 08:02:42;;;;;;;25.60;10.25;;;18.80;99.90;;;;;;5058902;28;20035;-55
2023/05/28 08:05:08;;;;;;;18.38;9.57;;;19.00;99.90;;;;;;5054793;28;20099;-54
2023/05/28 08:07:34;;;;;;;18.98;9.55;;;18.70;99.90;;;;;;5058602;28;20455;-56
2023/05/28 08:10:00;;;;;;;19.13;9.02;;;18.80;99.90;;;;;;5055964;28;20041;-55
2023/05/28 08:12:26;;;;;;;21.92;9.00;;;18.90;99.90;;;;;;5056770;28;20043;-56
2023/05/28 08:14:52;;;;;;;19.90;8.50;;;18.80;99.90;;;;;;5057603;28;20033;-55
2023/05/28 08:17:21;;;;;;;22.30;9.45;;;19.00;99.90;;;;;;5057433;28;20040;-56
2023/05/28 08:19:46;;;;;;;17.50;8.32;;;19.20;99.90;;;;;;5052848;28;20378;-56
2023/05/28 08:22:12;;;;;;;21.98;7.70;;;19.40;99.90;;;;;;5060339;28;20047;-56
2023/05/28 08:24:38;;;;;;;17.02;7.45;;;19.40;99.90;;;;;;5059608;28;20098;-56
2023/05/28 08:27:04;;;;;;;15.73;7.43;;;19.40;99.90;;;;;;5053750;28;20064;-56
2023/05/28 08:29:29;;;;;;;14.40;6.75;;;19.40;99.90;;;;;;5046414;28;20040;-55
2023/05/28 08:31:57;;;;;;;19.48;7.82;;;19.70;99.90;;;;;;5054111;28;20045;-55
2023/05/28 08:34:23;;;;;;;17.65;7.18;;;19.80;99.90;;;;;;5058889;28;20052;-56
2023/05/28 08:36:48;;;;;;;14.27;5.95;;;19.90;99.90;;;;;;5055977;28;20032;-57
2023/05/28 08:39:14;;;;;;;18.17;7.20;;;20.00;99.90;;;;;;5063628;28;20056;-56
2023/05/28 08:41:40;;;;;;;13.30;6.18;;;19.90;99.90;;;;;;5059508;28;20115;-56
2023/05/28 08:44:05;;;;;;;16.35;6.20;;;19.90;99.90;;;;;;5052730;28;20036;-56
2023/05/28 08:46:32;;;;;;;13.20;5.72;;;20.10;99.90;;;;;;5054060;28;20033;-57
2023/05/28 08:48:58;;;;;;;13.38;4.90;;;20.00;99.90;;;;;;5055265;28;20345;-56
2023/05/28 08:51:26;;;;;;;13.13;5.28;;;20.20;99.90;;;;;;5053041;28;20021;-56
2023/05/28 08:53:53;;;;;;;10.90;4.93;;;20.10;99.90;;;;;;5054152;28;20530;-56
2023/05/28 08:56:20;;;;;;;8.32;4.78;;;20.30;99.90;;;;;;5057439;28;20115;-56
2023/05/28 08:58:46;;;;;;;10.52;4.20;;;20.60;99.90;;;;;;5053068;28;20416;-56
2023/05/28 09:01:12;;;;;;;11.85;5.03;;;20.90;99.90;;;;;;5055307;28;20036;-55
2023/05/28 09:03:39;;;;;;;8.90;4.38;;;21.20;99.90;;;;;;5050437;28;20146;-55
2023/05/28 09:06:06;;;;;;;10.10;4.53;;;20.90;99.90;;;;;;5045099;28;20041;-56
2023/05/28 09:08:32;;;;;;;11.10;4.43;;;21.10;99.90;;;;;;5047141;28;20043;-55
2023/05/28 09:11:10;;;;;;;10.57;4.20;;;21.10;99.90;;;;;;5053064;28;20029;-55
2023/05/28 09:13:43;;;;;;;10.35;4.63;;;20.90;99.90;;;;;;5052004;28;20540;-55
2023/05/28 09:16:10;;;;;;;13.07;4.97;;;21.00;99.90;;;;;;5046142;28;20179;-54
2023/05/28 09:18:36;;;;;;;12.63;4.65;;;20.90;99.90;;;;;;5049793;28;20953;-55
2023/05/28 09:21:08;;;;;;;11.02;4.65;;;21.20;99.90;;;;;;5047255;28;20120;-57
2023/05/28 09:23:34;;;;;;;9.25;3.85;;;21.40;99.90;;;;;;5048046;28;20041;-56
2023/05/28 09:26:00;;;;;;;12.23;4.40;;;21.90;99.90;;;;;;5052907;28;20029;-55
2023/05/28 09:28:29;;;;;;;10.02;4.22;;;21.70;99.90;;;;;;5051597;28;20029;-54
2023/05/28 09:31:05;;;;;;;10.20;4.35;;;22.30;99.90;;;;;;5046012;28;20122;-55
2023/05/28 09:33:32;;;;;;;12.48;4.38;;;22.00;99.90;;;;;;5055400;28;20029;-55
2023/05/28 09:35:59;;;;;;;10.50;4.45;;;22.10;99.90;;;;;;5045546;28;20075;-56
2023/05/28 09:38:26;;;;;;;11.35;4.00;;;22.20;99.90;;;;;;5048118;28;20033;-56
2023/05/28 09:40:54;;;;;;;13.93;4.47;;;22.30;99.90;;;;;;5053968;28;20029;-56
2023/05/28 09:43:28;;;;;;;9.48;4.22;;;22.20;99.90;;;;;;5051452;28;20529;-56
2023/05/28 09:46:06;;;;;;;11.45;4.40;;;22.10;99.90;;;;;;5057431;28;20025;-56
2023/05/28 09:48:32;;;;;;;11.27;4.20;;;21.80;99.90;;;;;;5053984;28;20094;-56
2023/05/28 09:51:00;;;;;;;13.63;4.38;;;22.00;99.90;;;;;;5056446;28;20036;-56
2023/05/28 09:53:28;;;;;;;8.55;3.88;;;22.30;99.90;;;;;;5050101;28;20063;-56
2023/05/28 09:55:54;;;;;;;10.98;4.15;;;22.00;99.90;;;;;;5046947;28;20072;-56
2023/05/28 09:58:23;;;;;;;11.98;4.30;;;21.90;99.90;;;;;;5046141;28;20128;-56
2023/05/28 10:00:54;;;;;;;12.20;4.43;;;21.60;99.90;;;;;;5053851;28;20034;-56
2023/05/28 10:03:28;;;;;;;9.57;4.20;;;21.60;99.90;;;;;;5049461;28;20500;-55
2023/05/28 10:06:00;;;;;;;10.05;3.80;;;21.60;99.90;;;;;;5046833;28;20503;-55
2023/05/28 10:08:26;;;;;;;10.45;3.95;;;21.60;99.90;;;;;;5056404;28;20464;-55
2023/05/28 10:10:53;;;;;;;7.80;3.83;;;21.70;99.90;;;;;;5051409;28;20032;-55
2023/05/28 10:13:19;;;;;;;9.80;3.90;;;21.70;99.90;;;;;;5054447;28;20056;-56
2023/05/28 10:15:45;;;;;;;13.27;4.28;;;21.80;99.90;;;;;;5052193;28;20040;-55
2023/05/28 10:18:14;;;;;;;6.60;3.67;;;21.90;99.90;;;;;;5053213;28;20033;-56
2023/05/28 10:20:40;;;;;;;9.18;4.13;;;21.80;99.90;;;;;;5048879;28;20064;-55
2023/05/28 10:23:07;;;;;;;8.27;3.95;;;21.70;99.90;;;;;;5051107;28;20459;-55
2023/05/28 10:25:33;;;;;;;9.35;3.95;;;21.80;99.90;;;;;;5051995;28;20118;-56
2023/05/28 10:28:03;;;;;;;9.45;3.97;;;22.00;99.90;;;;;;5051059;28;20032;-56
2023/05/28 10:30:36;;;;;;;11.68;4.35;;;22.10;99.90;;;;;;5054442;28;20392;-56
2023/05/28 10:33:09;;;;;;;9.38;4.03;;;22.10;99.90;;;;;;5049261;28;20135;-56
2023/05/28 10:35:49;;;;;;;10.05;4.03;;;22.30;99.90;;;;;;5054708;28;20055;-56
2023/05/28 10:38:15;;;;;;;12.55;4.53;;;22.20;99.90;;;;;;5048639;28;20087;-56
2023/05/28 10:40:40;;;;;;;9.85;5.07;;;22.90;99.90;;;;;;5050906;28;20513;-56
2023/05/28 10:43:38;;;;;;;10.40;4.40;;;22.50;99.90;;;;;;5052314;28;20110;-56
2023/05/28 10:46:24;;;;;;;12.50;4.53;;;22.40;99.90;;;;;;5046964;28;20083;-56
2023/05/28 10:49:13;;;;;;;9.70;4.13;;;22.60;99.90;;;;;;5047471;28;20029;-56
2023/05/28 10:52:02;;;;;;;11.20;4.18;;;22.30;99.90;;;;;;5048907;28;20036;-57
2023/05/28 10:54:33;;;;;;;11.35;3.95;;;22.50;99.90;;;;;;5054359;28;20029;-56
2023/05/28 10:57:15;;;;;;;12.32;3.78;;;22.40;99.90;;;;;;5056411;28;20033;-55
2023/05/28 10:59:47;;;;;;;9.43;4.00;;;22.30;99.90;;;;;;5054506;28;20530;-55
2023/05/28 11:02:18;;;;;;;8.38;4.13;;;22.50;99.90;;;;;;5052845;28;20519;-55
2023/05/28 11:04:44;;;;;;;11.80;4.25;;;22.70;99.90;;;;;;5050192;28;20036;-56
2023/05/28 11:07:12;;;;;;;8.38;4.00;;;22.60;99.90;;;;;;5052148;28;20270;-56
2023/05/28 11:09:39;;;;;;;10.35;3.53;;;23.30;99.90;;;;;;5051943;28;20123;-56
2023/05/28 11:12:05;;;;;;;11.88;4.13;;;22.90;99.90;;;;;;5054572;28;20337;-56
2023/05/28 11:14:35;;;;;;;8.20;3.72;;;22.80;99.90;;;;;;5057739;28;20033;-57
2023/05/28 11:17:00;;;;;;;8.60;3.78;;;22.80;99.90;;;;;;5051672;28;20124;-56
2023/05/28 11:19:26;;;;;;;10.25;3.95;;;22.60;99.90;;;;;;5053000;28;20112;-56
2023/05/28 11:21:57;;;;;;;8.70;4.00;;;22.60;99.90;;;;;;5055449;28;20029;-56
2023/05/28 11:24:23;;;;;;;8.57;3.90;;;22.80;99.90;;;;;;5053924;28;20037;-56
2023/05/28 11:26:55;;;;;;;9.25;3.90;;;22.50;99.90;;;;;;5054979;28;20082;-56
2023/05/28 11:29:21;;;;;;;7.18;3.67;;;22.80;99.90;;;;;;5055309;28;20777;-56
2023/05/28 11:31:47;;;;;;;11.57;4.00;;;22.70;99.90;;;;;;5053295;28;20472;-56
2023/05/28 11:34:12;;;;;;;9.32;4.13;;;22.50;99.90;;;;;;5051443;28;20056;-56
2023/05/28 11:36:42;;;;;;;8.18;3.90;;;22.50;99.90;;;;;;5053449;28;20033;-56
2023/05/28 11:39:08;;;;;;;9.15;4.35;;;22.70;99.90;;;;;;5058798;28;20031;-56
2023/05/28 11:41:33;;;;;;;11.18;4.05;;;23.00;98.80;;;;;;5061162;28;20033;-56
2023/05/28 11:43:59;;;;;;;8.85;4.07;;;22.80;99.90;;;;;;5060291;28;20163;-56
2023/05/28 11:46:25;;;;;;;8.43;3.85;;;22.80;99.90;;;;;;5058533;28;20075;-56
2023/05/28 11:48:51;;;;;;;8.60;4.20;;;22.90;99.90;;;;;;5058939;28;20369;-56
2023/05/28 11:51:19;;;;;;;8.68;3.63;;;23.00;99.90;;;;;;5062820;28;20043;-56
2023/05/28 11:53:46;;;;;;;12.77;4.07;;;22.90;99.90;;;;;;5059615;28;20469;-56
2023/05/28 11:56:12;;;;;;;9.13;3.92;;;23.50;99.90;;;;;;5056770;28;20029;-56
2023/05/28 11:58:43;;;;;;;9.38;3.88;;;23.40;99.90;;;;;;5063369;28;20036;-56
2023/05/28 12:01:13;;;;;;;12.48;4.28;;;23.10;99.90;;;;;;5060235;28;20376;-56
2023/05/28 12:03:38;;;;;;;7.47;3.83;;;23.10;96.90;;;;;;5054595;28;20036;-56
2023/05/28 12:06:04;;;;;;;11.65;4.30;;;23.10;99.90;;;;;;5060703;28;20812;-57
2023/05/28 12:08:30;;;;;;;10.40;3.72;;;23.10;99.90;;;;;;5060222;28;20041;-56
2023/05/28 12:11:02;;;;;;;9.45;4.15;;;23.20;99.90;;;;;;5054746;28;20033;-56
2023/05/28 12:13:35;;;;;;;11.60;4.25;;;23.20;99.90;;;;;;5059933;28;20115;-56
2023/05/28 12:16:10;;;;;;;9.93;4.10;;;23.30;99.90;;;;;;5058049;28;20224;-56
2023/05/28 12:18:43;;;;;;;8.52;4.00;;;23.20;99.90;;;;;;5055017;28;20455;-57
2023/05/28 12:21:18;;;;;;;7.47;4.10;;;23.30;98.60;;;;;;5056493;28;20040;-56
2023/05/28 12:23:44;;;;;;;9.57;3.38;;;23.30;98.70;;;;;;5052999;28;20032;-56
2023/05/28 12:26:11;;;;;;;8.32;3.70;;;23.30;95.60;;;;;;5054434;28;20087;-56
2023/05/28 12:28:39;;;;;;;8.65;3.92;;;23.40;99.90;;;;;;5058671;28;20041;-56
2023/05/28 12:31:05;;;;;;;12.80;3.92;;;23.40;98.60;;;;;;5056297;28;20511;-57
2023/05/28 12:33:31;;;;;;;8.93;3.63;;;23.20;98.80;;;;;;5050585;28;20035;-56
2023/05/28 12:35:59;;;;;;;8.35;3.72;;;23.40;99.90;;;;;;5046949;28;20044;-57